sensor_id;sensor_type;location;lat;lon;timestamp;temperature;humidity
31725;DHT22;18306;40.960;14.836;2023-11-19T00:00:08;10.30;99.90
31725;DHT22;18306;40.960;14.836;2023-11-19T00:02:42;10.20;99.90
31725;DHT22;18306;40.960;14.836;2023-11-19T00:05:10;10.20;99.90
31725;DHT22;18306;40.960;14.836;2023-11-19T00:07:38;10.30;99.90
31725;DHT22;18306;40.960;14.836;2023-11-19T00:10:09;10.30;99.90
31725;DHT22;18306;40.960;14.836;2023-11-19T00:12:45;10.30;99.90
31725;DHT22;18306;40.960;14.836;2023-11-19T00:15:13;10.20;99.90
31725;DHT22;18306;40.960;14.836;2023-11-19T00:17:41;10.20;99.90
31725;DHT22;18306;40.960;14.836;2023-11-19T00:22:38;10.10;99.90
31725;DHT22;18306;40.960;14.836;2023-11-19T00:25:06;10.00;99.90
31725;DHT22;18306;40.960;14.836;2023-11-19T00:27:33;10.00;99.90
31725;DHT22;18306;40.960;14.836;2023-11-19T00:30:00;10.00;99.90
31725;DHT22;18306;40.960;14.836;2023-11-19T00:32:28;10.10;99.90
31725;DHT22;18306;40.960;14.836;2023-11-19T00:34:56;10.10;99.90
31725;DHT22;18306;40.960;14.836;2023-11-19T00:37:23;10.10;99.90
31725;DHT22;18306;40.960;14.836;2023-11-19T00:39:50;10.10;99.90
31725;DHT22;18306;40.960;14.836;2023-11-19T00:42:18;10.10;99.90
31725;DHT22;18306;40.960;14.836;2023-11-19T00:44:45;10.20;99.90
31725;DHT22;18306;40.960;14.836;2023-11-19T00:47:12;10.10;99.90
31725;DHT22;18306;40.960;14.836;2023-11-19T00:49:39;9.90;99.90
31725;DHT22;18306;40.960;14.836;2023-11-19T00:52:07;10.00;99.90
31725;DHT22;18306;40.960;14.836;2023-11-19T00:54:34;10.00;99.90
31725;DHT22;18306;40.960;14.836;2023-11-19T00:57:01;10.00;99.90
31725;DHT22;18306;40.960;14.836;2023-11-19T00:59:28;9.90;99.90
31725;DHT22;18306;40.960;14.836;2023-11-19T01:01:55;9.90;99.90
31725;DHT22;18306;40.960;14.836;2023-11-19T01:04:24;9.90;99.90
31725;DHT22;18306;40.960;14.836;2023-11-19T01:06:51;9.90;99.90
31725;DHT22;18306;40.960;14.836;2023-11-19T01:09:18;9.80;99.90
31725;DHT22;18306;40.960;14.836;2023-11-19T01:11:45;9.90;99.90
31725;DHT22;18306;40.960;14.836;2023-11-19T01:14:12;9.90;99.90
31725;DHT22;18306;40.960;14.836;2023-11-19T01:16:39;9.90;99.90
31725;DHT22;18306;40.960;14.836;2023-11-19T01:19:06;10.00;99.90
31725;DHT22;18306;40.960;14.836;2023-11-19T01:21:33;9.90;99.90
31725;DHT22;18306;40.960;14.836;2023-11-19T01:24:00;10.00;99.90
31725;DHT22;18306;40.960;14.836;2023-11-19T01:26:27;10.00;99.90
31725;DHT22;18306;40.960;14.836;2023-11-19T01:28:54;10.00;99.90
31725;DHT22;18306;40.960;14.836;2023-11-19T01:31:21;9.90;99.90
31725;DHT22;18306;40.960;14.836;2023-11-19T01:33:48;9.80;99.90
31725;DHT22;18306;40.960;14.836;2023-11-19T01:36:15;9.80;99.90
31725;DHT22;18306;40.960;14.836;2023-11-19T01:38:42;9.70;99.90
31725;DHT22;18306;40.960;14.836;2023-11-19T01:41:10;9.80;99.90
31725;DHT22;18306;40.960;14.836;2023-11-19T01:43:38;9.80;99.90
31725;DHT22;18306;40.960;14.836;2023-11-19T01:46:08;9.80;99.90
31725;DHT22;18306;40.960;14.836;2023-11-19T01:48:45;9.70;99.90
31725;DHT22;18306;40.960;14.836;2023-11-19T01:51:12;9.70;99.90
31725;DHT22;18306;40.960;14.836;2023-11-19T01:53:43;9.70;99.90
31725;DHT22;18306;40.960;14.836;2023-11-19T01:56:14;9.60;99.90
31725;DHT22;18306;40.960;14.836;2023-11-19T01:58:43;9.30;99.90
31725;DHT22;18306;40.960;14.836;2023-11-19T02:01:13;9.30;99.90
31725;DHT22;18306;40.960;14.836;2023-11-19T02:03:40;9.30;99.90
31725;DHT22;18306;40.960;14.836;2023-11-19T02:06:07;9.30;99.90
31725;DHT22;18306;40.960;14.836;2023-11-19T02:08:37;9.30;99.90
31725;DHT22;18306;40.960;14.836;2023-11-19T02:11:05;9.30;99.90
31725;DHT22;18306;40.960;14.836;2023-11-19T02:13:34;9.40;99.90
31725;DHT22;18306;40.960;14.836;2023-11-19T02:16:04;9.20;99.90
31725;DHT22;18306;40.960;14.836;2023-11-19T02:18:31;9.20;99.90
31725;DHT22;18306;40.960;14.836;2023-11-19T02:20:59;9.00;99.90
31725;DHT22;18306;40.960;14.836;2023-11-19T02:23:27;8.90;99.90
31725;DHT22;18306;40.960;14.836;2023-11-19T02:29:01;9.10;99.90
31725;DHT22;18306;40.960;14.836;2023-11-19T02:31:29;9.00;99.90
31725;DHT22;18306;40.960;14.836;2023-11-19T02:33:56;9.10;99.90
31725;DHT22;18306;40.960;14.836;2023-11-19T02:36:23;9.20;99.90
31725;DHT22;18306;40.960;14.836;2023-11-19T02:38:50;9.30;99.90
31725;DHT22;18306;40.960;14.836;2023-11-19T02:41:17;9.30;99.90
31725;DHT22;18306;40.960;14.836;2023-11-19T02:43:44;9.40;99.90
31725;DHT22;18306;40.960;14.836;2023-11-19T02:46:11;9.50;99.90
31725;DHT22;18306;40.960;14.836;2023-11-19T02:48:38;9.50;99.90
31725;DHT22;18306;40.960;14.836;2023-11-19T02:51:06;9.60;99.90
31725;DHT22;18306;40.960;14.836;2023-11-19T02:53:36;9.50;99.90
31725;DHT22;18306;40.960;14.836;2023-11-19T02:56:06;9.60;99.90
31725;DHT22;18306;40.960;14.836;2023-11-19T02:58:45;9.60;99.90
31725;DHT22;18306;40.960;14.836;2023-11-19T03:01:13;9.50;99.90
31725;DHT22;18306;40.960;14.836;2023-11-19T03:03:50;9.20;99.90
31725;DHT22;18306;40.960;14.836;2023-11-19T03:06:28;9.10;99.90
31725;DHT22;18306;40.960;14.836;2023-11-19T03:08:55;9.10;99.90
31725;DHT22;18306;40.960;14.836;2023-11-19T03:11:23;9.20;99.90
31725;DHT22;18306;40.960;14.836;2023-11-19T03:13:51;9.20;99.90
31725;DHT22;18306;40.960;14.836;2023-11-19T03:16:18;9.20;99.90
31725;DHT22;18306;40.960;14.836;2023-11-19T03:18:45;9.10;99.90
31725;DHT22;18306;40.960;14.836;2023-11-19T03:21:12;9.20;99.90
31725;DHT22;18306;40.960;14.836;2023-11-19T03:23:39;9.30;99.90
31725;DHT22;18306;40.960;14.836;2023-11-19T03:26:06;9.20;99.90
31725;DHT22;18306;40.960;14.836;2023-11-19T03:28:34;9.20;99.90
31725;DHT22;18306;40.960;14.836;2023-11-19T03:31:04;9.10;99.90
31725;DHT22;18306;40.960;14.836;2023-11-19T03:33:35;9.10;99.90
31725;DHT22;18306;40.960;14.836;2023-11-19T03:36:04;9.00;99.90
31725;DHT22;18306;40.960;14.836;2023-11-19T03:38:32;9.00;99.90
31725;DHT22;18306;40.960;14.836;2023-11-19T03:41:00;8.90;99.90
31725;DHT22;18306;40.960;14.836;2023-11-19T03:43:26;9.00;99.90
31725;DHT22;18306;40.960;14.836;2023-11-19T03:45:54;9.10;99.90
31725;DHT22;18306;40.960;14.836;2023-11-19T03:48:21;9.20;99.90
31725;DHT22;18306;40.960;14.836;2023-11-19T03:50:49;9.30;99.90
31725;DHT22;18306;40.960;14.836;2023-11-19T03:53:16;9.30;99.90
31725;DHT22;18306;40.960;14.836;2023-11-19T03:55:43;9.20;99.90
31725;DHT22;18306;40.960;14.836;2023-11-19T03:58:10;9.30;99.90
31725;DHT22;18306;40.960;14.836;2023-11-19T04:00:38;9.30;99.90
31725;DHT22;18306;40.960;14.836;2023-11-19T04:03:05;9.30;99.90
31725;DHT22;18306;40.960;14.836;2023-11-19T04:05:32;9.30;99.90
31725;DHT22;18306;40.960;14.836;2023-11-19T04:07:59;9.10;99.90
31725;DHT22;18306;40.960;14.836;2023-11-19T04:10:27;9.20;99.90
31725;DHT22;18306;40.960;14.836;2023-11-19T04:12:54;9.00;99.90
31725;DHT22;18306;40.960;14.836;2023-11-19T04:15:21;8.90;99.90
31725;DHT22;18306;40.960;14.836;2023-11-19T04:17:48;9.10;99.90
31725;DHT22;18306;40.960;14.836;2023-11-19T04:20:16;9.10;99.90
31725;DHT22;18306;40.960;14.836;2023-11-19T04:22:43;9.10;99.90
31725;DHT22;18306;40.960;14.836;2023-11-19T04:25:10;8.80;99.90
31725;DHT22;18306;40.960;14.836;2023-11-19T04:27:37;8.70;99.90
31725;DHT22;18306;40.960;14.836;2023-11-19T04:30:05;8.70;99.90
31725;DHT22;18306;40.960;14.836;2023-11-19T04:32:37;8.70;99.90
31725;DHT22;18306;40.960;14.836;2023-11-19T04:35:04;8.70;99.90
31725;DHT22;18306;40.960;14.836;2023-11-19T04:37:31;8.70;99.90
31725;DHT22;18306;40.960;14.836;2023-11-19T04:39:58;8.90;99.90
31725;DHT22;18306;40.960;14.836;2023-11-19T04:42:26;8.80;99.90
31725;DHT22;18306;40.960;14.836;2023-11-19T04:44:53;8.80;99.90
31725;DHT22;18306;40.960;14.836;2023-11-19T04:47:20;8.90;99.90
31725;DHT22;18306;40.960;14.836;2023-11-19T04:49:47;8.90;99.90
31725;DHT22;18306;40.960;14.836;2023-11-19T04:52:14;9.00;99.90
31725;DHT22;18306;40.960;14.836;2023-11-19T04:54:42;8.90;99.90
31725;DHT22;18306;40.960;14.836;2023-11-19T04:57:10;8.90;99.90
31725;DHT22;18306;40.960;14.836;2023-11-19T04:59:40;8.90;99.90
31725;DHT22;18306;40.960;14.836;2023-11-19T05:02:08;8.80;99.90
31725;DHT22;18306;40.960;14.836;2023-11-19T05:04:36;8.70;99.90
31725;DHT22;18306;40.960;14.836;2023-11-19T05:07:04;8.80;99.90
31725;DHT22;18306;40.960;14.836;2023-11-19T05:09:31;8.70;99.90
31725;DHT22;18306;40.960;14.836;2023-11-19T05:11:58;8.80;99.90
31725;DHT22;18306;40.960;14.836;2023-11-19T05:14:25;8.90;99.90
31725;DHT22;18306;40.960;14.836;2023-11-19T05:16:52;8.80;99.90
31725;DHT22;18306;40.960;14.836;2023-11-19T05:19:19;8.80;99.90
31725;DHT22;18306;40.960;14.836;2023-11-19T05:21:46;8.80;99.90
31725;DHT22;18306;40.960;14.836;2023-11-19T05:24:13;8.70;99.90
31725;DHT22;18306;40.960;14.836;2023-11-19T05:26:40;8.70;99.90
31725;DHT22;18306;40.960;14.836;2023-11-19T05:29:07;8.70;99.90
31725;DHT22;18306;40.960;14.836;2023-11-19T05:31:34;8.70;99.90
31725;DHT22;18306;40.960;14.836;2023-11-19T05:34:01;8.60;99.90
31725;DHT22;18306;40.960;14.836;2023-11-19T05:36:28;8.60;99.90
31725;DHT22;18306;40.960;14.836;2023-11-19T05:38:55;8.60;99.90
31725;DHT22;18306;40.960;14.836;2023-11-19T05:41:22;8.70;99.90
31725;DHT22;18306;40.960;14.836;2023-11-19T05:43:49;8.80;99.90
31725;DHT22;18306;40.960;14.836;2023-11-19T05:46:16;8.80;99.90
31725;DHT22;18306;40.960;14.836;2023-11-19T05:48:43;8.90;99.90
31725;DHT22;18306;40.960;14.836;2023-11-19T05:51:12;8.90;99.90
31725;DHT22;18306;40.960;14.836;2023-11-19T05:53:39;8.90;99.90
31725;DHT22;18306;40.960;14.836;2023-11-19T05:56:06;9.00;99.90
31725;DHT22;18306;40.960;14.836;2023-11-19T05:58:36;9.00;99.90
31725;DHT22;18306;40.960;14.836;2023-11-19T06:01:04;8.90;99.90
31725;DHT22;18306;40.960;14.836;2023-11-19T06:03:33;8.80;99.90
31725;DHT22;18306;40.960;14.836;2023-11-19T06:06:01;8.80;99.90
31725;DHT22;18306;40.960;14.836;2023-11-19T06:08:28;8.70;99.90
31725;DHT22;18306;40.960;14.836;2023-11-19T06:10:56;8.60;99.90
31725;DHT22;18306;40.960;14.836;2023-11-19T06:13:23;8.50;99.90
31725;DHT22;18306;40.960;14.836;2023-11-19T06:15:52;8.60;99.90
31725;DHT22;18306;40.960;14.836;2023-11-19T06:18:19;8.60;99.90
31725;DHT22;18306;40.960;14.836;2023-11-19T06:20:50;8.70;99.90
31725;DHT22;18306;40.960;14.836;2023-11-19T06:23:16;8.70;99.90
31725;DHT22;18306;40.960;14.836;2023-11-19T06:25:43;8.90;99.90
31725;DHT22;18306;40.960;14.836;2023-11-19T06:28:10;8.90;99.90
31725;DHT22;18306;40.960;14.836;2023-11-19T06:30:37;9.00;99.90
31725;DHT22;18306;40.960;14.836;2023-11-19T06:33:04;9.00;99.90
31725;DHT22;18306;40.960;14.836;2023-11-19T06:35:31;9.00;99.90
31725;DHT22;18306;40.960;14.836;2023-11-19T06:38:03;9.10;99.90
31725;DHT22;18306;40.960;14.836;2023-11-19T06:40:33;8.90;99.90
31725;DHT22;18306;40.960;14.836;2023-11-19T06:43:02;8.90;99.90
31725;DHT22;18306;40.960;14.836;2023-11-19T06:45:32;9.00;99.90
31725;DHT22;18306;40.960;14.836;2023-11-19T06:48:01;9.10;99.90
31725;DHT22;18306;40.960;14.836;2023-11-19T06:50:30;9.10;99.90
31725;DHT22;18306;40.960;14.836;2023-11-19T06:52:57;9.10;99.90
31725;DHT22;18306;40.960;14.836;2023-11-19T06:55:24;9.10;99.90
31725;DHT22;18306;40.960;14.836;2023-11-19T06:57:52;9.10;99.90
31725;DHT22;18306;40.960;14.836;2023-11-19T07:00:19;9.20;99.90
31725;DHT22;18306;40.960;14.836;2023-11-19T07:02:47;9.10;99.90
31725;DHT22;18306;40.960;14.836;2023-11-19T07:05:14;9.20;99.90
31725;DHT22;18306;40.960;14.836;2023-11-19T07:07:47;9.30;99.90
31725;DHT22;18306;40.960;14.836;2023-11-19T07:10:20;9.50;99.90
31725;DHT22;18306;40.960;14.836;2023-11-19T07:12:47;9.60;99.90
31725;DHT22;18306;40.960;14.836;2023-11-19T07:15:16;9.50;99.90
31725;DHT22;18306;40.960;14.836;2023-11-19T07:17:44;9.60;99.90
31725;DHT22;18306;40.960;14.836;2023-11-19T07:20:11;9.80;99.90
31725;DHT22;18306;40.960;14.836;2023-11-19T07:22:48;10.00;99.90
31725;DHT22;18306;40.960;14.836;2023-11-19T07:25:16;10.10;99.90
31725;DHT22;18306;40.960;14.836;2023-11-19T07:27:43;10.20;99.90
31725;DHT22;18306;40.960;14.836;2023-11-19T07:30:16;10.30;99.90
31725;DHT22;18306;40.960;14.836;2023-11-19T07:32:44;10.40;99.90
31725;DHT22;18306;40.960;14.836;2023-11-19T07:35:11;10.50;99.90
31725;DHT22;18306;40.960;14.836;2023-11-19T07:37:38;10.70;99.90
31725;DHT22;18306;40.960;14.836;2023-11-19T07:40:06;10.80;99.90
31725;DHT22;18306;40.960;14.836;2023-11-19T07:42:35;10.90;99.90
31725;DHT22;18306;40.960;14.836;2023-11-19T07:45:04;11.00;99.90
31725;DHT22;18306;40.960;14.836;2023-11-19T07:47:32;11.20;99.90
31725;DHT22;18306;40.960;14.836;2023-11-19T07:49:59;11.30;99.90
31725;DHT22;18306;40.960;14.836;2023-11-19T07:52:26;11.40;99.90
31725;DHT22;18306;40.960;14.836;2023-11-19T07:54:53;11.50;99.90
31725;DHT22;18306;40.960;14.836;2023-11-19T07:57:22;11.70;99.90
31725;DHT22;18306;40.960;14.836;2023-11-19T07:59:50;11.90;99.90
31725;DHT22;18306;40.960;14.836;2023-11-19T08:02:17;12.20;99.90
31725;DHT22;18306;40.960;14.836;2023-11-19T08:04:45;12.50;99.90
31725;DHT22;18306;40.960;14.836;2023-11-19T08:07:13;12.80;99.90
31725;DHT22;18306;40.960;14.836;2023-11-19T08:09:40;13.00;99.90
31725;DHT22;18306;40.960;14.836;2023-11-19T08:12:07;13.10;99.70
31725;DHT22;18306;40.960;14.836;2023-11-19T08:14:35;13.20;99.70
31725;DHT22;18306;40.960;14.836;2023-11-19T08:17:03;13.00;99.70
31725;DHT22;18306;40.960;14.836;2023-11-19T08:19:30;12.90;99.90
31725;DHT22;18306;40.960;14.836;2023-11-19T08:21:57;12.90;99.90
31725;DHT22;18306;40.960;14.836;2023-11-19T08:24:24;13.10;99.90
31725;DHT22;18306;40.960;14.836;2023-11-19T08:26:51;13.20;99.90
31725;DHT22;18306;40.960;14.836;2023-11-19T08:29:18;13.40;99.90
31725;DHT22;18306;40.960;14.836;2023-11-19T08:31:45;13.60;99.90
31725;DHT22;18306;40.960;14.836;2023-11-19T08:34:12;13.60;99.90
31725;DHT22;18306;40.960;14.836;2023-11-19T08:36:41;13.50;99.90
31725;DHT22;18306;40.960;14.836;2023-11-19T08:39:08;13.50;99.90
31725;DHT22;18306;40.960;14.836;2023-11-19T08:41:35;13.60;99.90
31725;DHT22;18306;40.960;14.836;2023-11-19T08:44:04;13.40;99.90
31725;DHT22;18306;40.960;14.836;2023-11-19T08:46:31;13.40;99.90
31725;DHT22;18306;40.960;14.836;2023-11-19T08:48:58;13.30;99.90
31725;DHT22;18306;40.960;14.836;2023-11-19T08:51:27;13.50;99.90
31725;DHT22;18306;40.960;14.836;2023-11-19T08:53:55;13.60;99.90
31725;DHT22;18306;40.960;14.836;2023-11-19T08:56:22;13.70;99.90
31725;DHT22;18306;40.960;14.836;2023-11-19T08:58:49;13.20;99.90
31725;DHT22;18306;40.960;14.836;2023-11-19T09:01:16;13.00;99.90
31725;DHT22;18306;40.960;14.836;2023-11-19T09:03:43;13.10;99.90
31725;DHT22;18306;40.960;14.836;2023-11-19T09:06:10;13.40;99.90
31725;DHT22;18306;40.960;14.836;2023-11-19T09:08:37;13.60;99.90
31725;DHT22;18306;40.960;14.836;2023-11-19T09:11:07;13.80;99.90
31725;DHT22;18306;40.960;14.836;2023-11-19T09:13:35;13.90;99.90
31725;DHT22;18306;40.960;14.836;2023-11-19T09:16:03;14.00;99.90
31725;DHT22;18306;40.960;14.836;2023-11-19T09:18:30;14.10;99.90
31725;DHT22;18306;40.960;14.836;2023-11-19T09:20:58;14.10;99.90
31725;DHT22;18306;40.960;14.836;2023-11-19T09:23:26;14.20;99.90
31725;DHT22;18306;40.960;14.836;2023-11-19T09:25:54;14.40;99.90
31725;DHT22;18306;40.960;14.836;2023-11-19T09:28:21;14.50;99.90
31725;DHT22;18306;40.960;14.836;2023-11-19T09:30:48;14.50;99.90
31725;DHT22;18306;40.960;14.836;2023-11-19T09:33:15;14.80;99.90
31725;DHT22;18306;40.960;14.836;2023-11-19T09:35:42;14.90;99.90
31725;DHT22;18306;40.960;14.836;2023-11-19T09:38:09;14.90;99.90
31725;DHT22;18306;40.960;14.836;2023-11-19T09:40:39;15.00;99.90
31725;DHT22;18306;40.960;14.836;2023-11-19T09:43:07;15.20;99.90
31725;DHT22;18306;40.960;14.836;2023-11-19T09:45:47;15.40;99.90
31725;DHT22;18306;40.960;14.836;2023-11-19T09:48:19;15.50;99.90
31725;DHT22;18306;40.960;14.836;2023-11-19T09:50:47;15.70;99.90
31725;DHT22;18306;40.960;14.836;2023-11-19T09:53:14;15.70;99.90
31725;DHT22;18306;40.960;14.836;2023-11-19T09:55:45;15.80;99.90
31725;DHT22;18306;40.960;14.836;2023-11-19T09:58:14;15.90;99.70
31725;DHT22;18306;40.960;14.836;2023-11-19T10:00:42;16.00;99.60
31725;DHT22;18306;40.960;14.836;2023-11-19T10:03:11;16.20;99.60
31725;DHT22;18306;40.960;14.836;2023-11-19T10:05:41;16.40;98.70
31725;DHT22;18306;40.960;14.836;2023-11-19T10:08:08;16.70;98.40
31725;DHT22;18306;40.960;14.836;2023-11-19T10:10:37;16.90;97.80
31725;DHT22;18306;40.960;14.836;2023-11-19T10:13:04;17.00;97.70
31725;DHT22;18306;40.960;14.836;2023-11-19T10:15:36;17.00;97.70
31725;DHT22;18306;40.960;14.836;2023-11-19T10:18:03;17.20;96.60
31725;DHT22;18306;40.960;14.836;2023-11-19T10:20:37;17.30;96.90
31725;DHT22;18306;40.960;14.836;2023-11-19T10:23:04;17.40;96.70
31725;DHT22;18306;40.960;14.836;2023-11-19T10:25:33;17.60;96.40
31725;DHT22;18306;40.960;14.836;2023-11-19T10:28:00;17.70;95.70
31725;DHT22;18306;40.960;14.836;2023-11-19T10:30:28;18.00;95.80
31725;DHT22;18306;40.960;14.836;2023-11-19T10:33:10;17.80;95.30
31725;DHT22;18306;40.960;14.836;2023-11-19T10:35:55;17.90;95.50
31725;DHT22;18306;40.960;14.836;2023-11-19T10:38:26;18.30;95.80
31725;DHT22;18306;40.960;14.836;2023-11-19T10:40:54;18.40;95.00
31725;DHT22;18306;40.960;14.836;2023-11-19T10:43:22;18.50;94.90
31725;DHT22;18306;40.960;14.836;2023-11-19T10:45:50;18.50;94.50
31725;DHT22;18306;40.960;14.836;2023-11-19T10:48:20;18.70;94.30
31725;DHT22;18306;40.960;14.836;2023-11-19T10:50:53;18.70;93.80
31725;DHT22;18306;40.960;14.836;2023-11-19T10:53:23;18.80;94.30
31725;DHT22;18306;40.960;14.836;2023-11-19T10:55:54;18.90;93.90
31725;DHT22;18306;40.960;14.836;2023-11-19T10:58:31;18.80;93.90
31725;DHT22;18306;40.960;14.836;2023-11-19T11:01:09;19.00;93.60
31725;DHT22;18306;40.960;14.836;2023-11-19T11:03:40;18.80;93.20
31725;DHT22;18306;40.960;14.836;2023-11-19T11:06:07;19.00;93.80
31725;DHT22;18306;40.960;14.836;2023-11-19T11:08:37;18.60;93.50
31725;DHT22;18306;40.960;14.836;2023-11-19T11:11:07;18.80;93.70
31725;DHT22;18306;40.960;14.836;2023-11-19T11:13:35;19.10;93.70
31725;DHT22;18306;40.960;14.836;2023-11-19T11:16:04;18.80;93.60
31725;DHT22;18306;40.960;14.836;2023-11-19T11:18:34;18.70;92.70
31725;DHT22;18306;40.960;14.836;2023-11-19T11:21:15;19.00;93.20
31725;DHT22;18306;40.960;14.836;2023-11-19T11:32:54;19.00;92.80
31725;DHT22;18306;40.960;14.836;2023-11-19T11:35:28;18.40;91.40
31725;DHT22;18306;40.960;14.836;2023-11-19T11:38:06;18.60;91.70
31725;DHT22;18306;40.960;14.836;2023-11-19T11:40:34;18.50;91.60
31725;DHT22;18306;40.960;14.836;2023-11-19T11:43:03;18.40;92.00
31725;DHT22;18306;40.960;14.836;2023-11-19T11:45:39;18.40;92.10
31725;DHT22;18306;40.960;14.836;2023-11-19T11:48:17;18.40;92.40
31725;DHT22;18306;40.960;14.836;2023-11-19T11:50:52;18.50;92.20
31725;DHT22;18306;40.960;14.836;2023-11-19T11:53:24;18.50;92.80
31725;DHT22;18306;40.960;14.836;2023-11-19T11:55:57;18.40;92.50
31725;DHT22;18306;40.960;14.836;2023-11-19T11:58:27;18.20;92.30
31725;DHT22;18306;40.960;14.836;2023-11-19T12:00:59;18.30;92.50
31725;DHT22;18306;40.960;14.836;2023-11-19T12:03:28;18.40;92.80
31725;DHT22;18306;40.960;14.836;2023-11-19T12:05:57;18.50;92.50
31725;DHT22;18306;40.960;14.836;2023-11-19T12:08:32;18.50;92.40
31725;DHT22;18306;40.960;14.836;2023-11-19T12:11:02;18.40;92.60
31725;DHT22;18306;40.960;14.836;2023-11-19T12:13:55;18.30;92.80
31725;DHT22;18306;40.960;14.836;2023-11-19T12:16:28;18.60;92.80
31725;DHT22;18306;40.960;14.836;2023-11-19T12:19:13;18.70;93.00
31725;DHT22;18306;40.960;14.836;2023-11-19T12:21:41;18.60;93.20
31725;DHT22;18306;40.960;14.836;2023-11-19T12:24:13;18.60;93.50
31725;DHT22;18306;40.960;14.836;2023-11-19T12:26:41;18.50;93.70
31725;DHT22;18306;40.960;14.836;2023-11-19T12:29:08;18.60;94.20
31725;DHT22;18306;40.960;14.836;2023-11-19T12:31:43;18.60;94.50
31725;DHT22;18306;40.960;14.836;2023-11-19T12:34:23;18.60;94.60
31725;DHT22;18306;40.960;14.836;2023-11-19T12:37:03;19.00;95.00
31725;DHT22;18306;40.960;14.836;2023-11-19T12:39:37;18.90;95.20
31725;DHT22;18306;40.960;14.836;2023-11-19T12:42:12;18.80;95.60
31725;DHT22;18306;40.960;14.836;2023-11-19T12:44:48;18.80;96.10
31725;DHT22;18306;40.960;14.836;2023-11-19T12:47:18;19.00;96.30
31725;DHT22;18306;40.960;14.836;2023-11-19T12:49:58;19.00;96.30
31725;DHT22;18306;40.960;14.836;2023-11-19T12:52:25;18.70;96.90
31725;DHT22;18306;40.960;14.836;2023-11-19T12:54:53;18.80;97.30
31725;DHT22;18306;40.960;14.836;2023-11-19T12:57:20;18.80;97.30
31725;DHT22;18306;40.960;14.836;2023-11-19T12:59:56;18.80;97.50
31725;DHT22;18306;40.960;14.836;2023-11-19T13:02:47;18.70;97.60
31725;DHT22;18306;40.960;14.836;2023-11-19T13:05:23;18.70;97.80
31725;DHT22;18306;40.960;14.836;2023-11-19T13:07:51;18.70;98.00
31725;DHT22;18306;40.960;14.836;2023-11-19T13:10:18;18.60;97.70
31725;DHT22;18306;40.960;14.836;2023-11-19T13:13:06;18.60;98.00
31725;DHT22;18306;40.960;14.836;2023-11-19T13:15:34;18.70;97.70
31725;DHT22;18306;40.960;14.836;2023-11-19T13:18:02;18.70;97.70
31725;DHT22;18306;40.960;14.836;2023-11-19T13:20:30;18.80;98.00
31725;DHT22;18306;40.960;14.836;2023-11-19T13:23:03;18.70;97.80
31725;DHT22;18306;40.960;14.836;2023-11-19T13:25:31;18.60;97.80
31725;DHT22;18306;40.960;14.836;2023-11-19T13:28:01;18.60;97.80
31725;DHT22;18306;40.960;14.836;2023-11-19T13:30:29;18.60;98.20
31725;DHT22;18306;40.960;14.836;2023-11-19T13:32:56;18.60;98.20
31725;DHT22;18306;40.960;14.836;2023-11-19T13:35:23;18.50;98.20
31725;DHT22;18306;40.960;14.836;2023-11-19T13:37:50;18.50;98.70
31725;DHT22;18306;40.960;14.836;2023-11-19T13:44:27;18.10;98.70
31725;DHT22;18306;40.960;14.836;2023-11-19T13:46:58;17.60;99.80
31725;DHT22;18306;40.960;14.836;2023-11-19T13:49:28;17.80;99.50
31725;DHT22;18306;40.960;14.836;2023-11-19T13:52:02;18.10;99.30
31725;DHT22;18306;40.960;14.836;2023-11-19T13:54:38;18.30;99.10
31725;DHT22;18306;40.960;14.836;2023-11-19T13:57:12;18.70;98.90
31725;DHT22;18306;40.960;14.836;2023-11-19T13:59:45;18.60;98.80
31725;DHT22;18306;40.960;14.836;2023-11-19T14:02:18;18.80;98.40
31725;DHT22;18306;40.960;14.836;2023-11-19T14:04:50;18.60;98.50
31725;DHT22;18306;40.960;14.836;2023-11-19T14:07:23;18.60;98.60
31725;DHT22;18306;40.960;14.836;2023-11-19T14:09:54;18.50;98.90
31725;DHT22;18306;40.960;14.836;2023-11-19T14:12:28;18.50;99.00
31725;DHT22;18306;40.960;14.836;2023-11-19T14:15:00;18.70;99.00
31725;DHT22;18306;40.960;14.836;2023-11-19T14:17:33;19.00;98.90
31725;DHT22;18306;40.960;14.836;2023-11-19T14:20:09;19.10;98.80
31725;DHT22;18306;40.960;14.836;2023-11-19T14:22:45;18.90;99.20
31725;DHT22;18306;40.960;14.836;2023-11-19T14:25:19;18.80;99.20
31725;DHT22;18306;40.960;14.836;2023-11-19T14:27:52;18.70;99.40
31725;DHT22;18306;40.960;14.836;2023-11-19T14:30:26;18.50;99.40
31725;DHT22;18306;40.960;14.836;2023-11-19T14:33:00;18.50;99.70
31725;DHT22;18306;40.960;14.836;2023-11-19T14:35:34;18.40;99.90
31725;DHT22;18306;40.960;14.836;2023-11-19T14:38:07;18.20;99.90
31725;DHT22;18306;40.960;14.836;2023-11-19T14:40:39;18.40;99.90
31725;DHT22;18306;40.960;14.836;2023-11-19T14:43:11;18.30;99.90
31725;DHT22;18306;40.960;14.836;2023-11-19T14:45:47;18.10;99.90
31725;DHT22;18306;40.960;14.836;2023-11-19T14:48:19;18.10;99.90
31725;DHT22;18306;40.960;14.836;2023-11-19T14:50:53;18.00;99.90
31725;DHT22;18306;40.960;14.836;2023-11-19T14:53:28;18.30;99.90
31725;DHT22;18306;40.960;14.836;2023-11-19T14:56:02;18.10;99.90
31725;DHT22;18306;40.960;14.836;2023-11-19T14:58:36;18.20;99.90
31725;DHT22;18306;40.960;14.836;2023-11-19T15:01:13;18.20;99.90
31725;DHT22;18306;40.960;14.836;2023-11-19T15:03:48;18.30;99.90
31725;DHT22;18306;40.960;14.836;2023-11-19T15:06:25;18.10;99.90
31725;DHT22;18306;40.960;14.836;2023-11-19T15:09:01;18.10;99.90
31725;DHT22;18306;40.960;14.836;2023-11-19T15:11:38;18.20;99.90
31725;DHT22;18306;40.960;14.836;2023-11-19T15:14:12;18.10;99.90
31725;DHT22;18306;40.960;14.836;2023-11-19T15:16:53;18.20;99.90
31725;DHT22;18306;40.960;14.836;2023-11-19T15:19:29;18.20;99.90
31725;DHT22;18306;40.960;14.836;2023-11-19T15:22:03;18.30;99.90
31725;DHT22;18306;40.960;14.836;2023-11-19T15:24:41;18.00;99.90
31725;DHT22;18306;40.960;14.836;2023-11-19T15:27:14;18.10;99.90
31725;DHT22;18306;40.960;14.836;2023-11-19T15:29:49;18.00;99.90
31725;DHT22;18306;40.960;14.836;2023-11-19T15:32:22;17.90;99.90
31725;DHT22;18306;40.960;14.836;2023-11-19T15:35:00;17.90;99.90
31725;DHT22;18306;40.960;14.836;2023-11-19T15:37:35;17.80;99.90
31725;DHT22;18306;40.960;14.836;2023-11-19T15:40:14;18.00;99.90
31725;DHT22;18306;40.960;14.836;2023-11-19T15:42:47;17.90;99.90
31725;DHT22;18306;40.960;14.836;2023-11-19T15:45:20;18.00;99.90
31725;DHT22;18306;40.960;14.836;2023-11-19T15:47:54;18.00;99.90
31725;DHT22;18306;40.960;14.836;2023-11-19T15:50:28;17.80;99.90
31725;DHT22;18306;40.960;14.836;2023-11-19T15:53:03;17.80;99.90
31725;DHT22;18306;40.960;14.836;2023-11-19T15:55:37;17.90;99.90